createdAt,value
2022-11-17T00:01:42.056Z,98993.94
2022-11-17T00:04:44.902Z,98982.25
2022-11-17T00:07:46.451Z,98991.44
2022-11-17T00:10:47.939Z,98993.50
2022-11-17T00:14:08.044Z,98996.22
2022-11-17T00:17:12.190Z,98995.34
2022-11-17T00:20:32.364Z,98993.84
2022-11-17T00:23:49.849Z,98988.63
2022-11-17T00:27:03.628Z,98978.81
2022-11-17T00:30:06.685Z,98962.56
2022-11-17T00:33:27.583Z,98973.41
2022-11-17T00:36:29.071Z,98965.63
2022-11-17T00:39:30.648Z,98954.78
2022-11-17T00:42:32.107Z,98944.97
2022-11-17T00:45:33.571Z,98938.72
2022-11-17T00:48:35.073Z,98938.91
2022-11-17T00:51:37.258Z,98944.34
2022-11-17T00:54:38.868Z,98954.34
2022-11-17T00:57:40.421Z,98954.53
2022-11-17T01:00:41.924Z,98939.13
2022-11-17T01:03:43.985Z,98938.25
2022-11-17T01:06:48.127Z,98932.84
2022-11-17T01:09:49.630Z,98924.09
2022-11-17T01:12:51.154Z,98915.97
2022-11-17T01:15:52.672Z,98909.66
2022-11-17T01:18:54.458Z,98908.00
2022-11-17T01:21:56.228Z,98904.47
2022-11-17T01:24:57.732Z,98896.34
2022-11-17T01:27:59.220Z,98897.16
2022-11-17T01:31:07.713Z,98897.16
2022-11-17T01:34:10.110Z,98894.63
2022-11-17T01:37:20.646Z,98880.47
2022-11-17T01:40:22.115Z,98866.91
2022-11-17T01:43:42.435Z,98873.81
2022-11-17T01:46:44.072Z,98865.22
2022-11-17T01:49:46.904Z,98859.78
2022-11-17T01:52:50.988Z,98867.09
2022-11-17T01:55:57.890Z,98852.72
2022-11-17T01:59:08.104Z,98856.44
2022-11-17T02:02:09.634Z,98853.13
2022-11-17T02:05:48.252Z,98851.03
2022-11-17T02:08:52.617Z,98840.41
2022-11-17T02:11:58.627Z,98842.28
2022-11-17T02:15:00.924Z,98837.03
2022-11-17T02:18:02.827Z,98835.16
2022-11-17T02:21:22.858Z,98818.91
2022-11-17T02:24:24.293Z,98822.00
2022-11-17T02:27:50.683Z,98815.34
2022-11-17T02:31:14.116Z,98807.41
2022-11-17T02:34:38.746Z,98801.16
2022-11-17T02:37:47.352Z,98795.09
2022-11-17T02:41:03.755Z,98785.09
2022-11-17T02:44:23.446Z,98781.94
2022-11-17T02:47:31.693Z,98777.34
2022-11-17T02:50:34.788Z,98761.31
2022-11-17T02:53:38.547Z,98767.56
2022-11-17T02:56:41.927Z,98761.31
2022-11-17T02:59:48.848Z,98759.44
2022-11-17T03:03:18.135Z,98758.38
2022-11-17T03:06:27.058Z,98756.06
2022-11-17T03:10:01.215Z,98751.47
2022-11-17T03:13:27.331Z,98752.34
2022-11-17T03:16:55.417Z,98747.94
2022-11-17T03:20:15.888Z,98749.00
2022-11-17T03:23:41.691Z,98732.72
2022-11-17T03:26:50.209Z,98722.91
2022-11-17T03:29:57.691Z,98725.84
2022-11-17T03:33:05.144Z,98722.28
2022-11-17T03:36:12.745Z,98716.22
2022-11-17T03:39:27.268Z,98714.34
2022-11-17T03:42:32.392Z,98710.16
2022-11-17T03:45:44.825Z,98711.00
2022-11-17T03:49:03.647Z,98703.69
2022-11-17T03:52:05.260Z,98702.88
2022-11-17T03:55:08.052Z,98702.88
2022-11-17T03:58:14.519Z,98706.41
2022-11-17T04:01:16.769Z,98703.09
2022-11-17T04:04:20.831Z,98696.63
2022-11-17T04:07:22.378Z,98696.81
2022-11-17T04:10:25.764Z,98702.03
2022-11-17T04:13:45.852Z,98690.38
2022-11-17T04:16:47.361Z,98682.66
2022-11-17T04:19:48.837Z,98677.25
2022-11-17T04:23:06.919Z,98671.84
2022-11-17T04:26:28.552Z,98673.53
2022-11-17T04:29:30.079Z,98676.41
2022-11-17T04:32:31.536Z,98676.22
2022-11-17T04:35:32.999Z,98669.78
2022-11-17T04:38:34.559Z,98661.63
2022-11-17T04:41:54.697Z,98649.13
2022-11-17T04:44:56.207Z,98662.47
2022-11-17T04:47:57.701Z,98660.81
2022-11-17T04:50:59.163Z,98667.06
2022-11-17T04:54:01.932Z,98661.44
2022-11-17T04:57:03.562Z,98665.00
2022-11-17T05:00:05.768Z,98652.28
2022-11-17T05:03:07.327Z,98644.97
2022-11-17T05:06:14.082Z,98640.38
2022-11-17T05:09:17.055Z,98645.63
2022-11-17T05:12:37.202Z,98632.25
2022-11-17T05:15:57.228Z,98638.53
2022-11-17T05:18:58.727Z,98624.78
2022-11-17T05:22:01.401Z,98623.94
2022-11-17T05:25:04.199Z,98629.34
2022-11-17T05:28:05.688Z,98637.69
2022-11-17T05:31:07.460Z,98630.41
2022-11-17T05:34:12.300Z,98627.69
2022-11-17T05:37:13.774Z,98631.44
2022-11-17T05:40:15.633Z,98620.59
2022-11-17T05:43:17.121Z,98624.34
2022-11-17T05:46:19.865Z,98612.69
2022-11-17T05:49:21.558Z,98604.75
2022-11-17T05:52:23.073Z,98612.88
2022-11-17T05:55:24.705Z,98606.81
2022-11-17T05:58:30.704Z,98601.19
2022-11-17T06:01:33.841Z,98604.09
2022-11-17T06:04:35.481Z,98604.31
2022-11-17T06:07:37.320Z,98597.22
2022-11-17T06:10:38.899Z,98594.31
2022-11-17T06:13:40.377Z,98593.25
2022-11-17T06:16:45.546Z,98582.88
2022-11-17T06:19:51.466Z,98590.59
2022-11-17T06:22:53.021Z,98584.34
2022-11-17T06:25:54.743Z,98585.19
2022-11-17T06:28:56.906Z,98587.66
2022-11-17T06:31:59.117Z,98585.81
2022-11-17T06:35:03.262Z,98589.13
2022-11-17T06:38:04.801Z,98593.53
2022-11-17T06:41:11.619Z,98592.28
2022-11-17T06:44:13.600Z,98590.22
2022-11-17T06:47:15.124Z,98583.94
2022-11-17T06:50:17.030Z,98575.63
2022-11-17T06:53:18.631Z,98580.00
2022-11-17T06:56:20.088Z,98585.41
2022-11-17T06:59:21.605Z,98587.28
2022-11-17T07:02:23.120Z,98587.75
2022-11-17T07:05:24.686Z,98584.16
2022-11-17T07:08:26.609Z,98585.03
2022-11-17T07:11:28.180Z,98583.34
2022-11-17T07:14:29.730Z,98577.91
2022-11-17T07:17:32.003Z,98563.53
2022-11-17T07:20:33.510Z,98565.41
2022-11-17T07:23:35.276Z,98568.31
2022-11-17T07:26:36.830Z,98561.44
2022-11-17T07:29:38.286Z,98569.78
2022-11-17T07:32:39.803Z,98571.84
2022-11-17T07:35:41.320Z,98569.34
2022-11-17T07:38:43.099Z,98567.69
2022-11-17T07:41:45.055Z,98565.78
2022-11-17T07:44:46.540Z,98557.84
2022-11-17T07:48:02.473Z,98556.84
2022-11-17T07:51:04.886Z,98542.66
2022-11-17T07:54:06.444Z,98532.00
2022-11-17T07:57:07.956Z,98539.31
2022-11-17T08:00:10.363Z,98535.75
2022-11-17T08:03:14.718Z,98534.94
2022-11-17T08:06:16.945Z,98529.69
2022-11-17T08:09:18.481Z,98539.72
2022-11-17T08:12:19.967Z,98536.19
2022-11-17T08:15:22.249Z,98529.94
2022-11-17T08:18:23.819Z,98519.28
2022-11-17T08:21:25.503Z,98524.69
2022-11-17T08:24:27.017Z,98529.28
2022-11-17T08:27:28.599Z,98525.75
2022-11-17T08:30:32.329Z,98520.53
2022-11-17T08:33:34.243Z,98519.69
2022-11-17T08:36:35.880Z,98521.56
2022-11-17T08:39:37.363Z,98527.19
2022-11-17T08:42:38.911Z,98533.44
2022-11-17T08:45:42.178Z,98532.59
2022-11-17T08:48:43.686Z,98527.38
2022-11-17T08:51:45.162Z,98528.41
2022-11-17T08:54:46.741Z,98531.31
2022-11-17T08:57:48.213Z,98524.25
2022-11-17T09:00:49.798Z,98527.13
2022-11-17T09:03:51.292Z,98517.34
2022-11-17T09:06:52.878Z,98517.34
2022-11-17T09:09:54.409Z,98524.66
2022-11-17T09:12:56.992Z,98523.81
2022-11-17T09:16:03.404Z,98523.81
2022-11-17T09:19:05.204Z,98529.44
2022-11-17T09:22:06.885Z,98525.88
2022-11-17T09:25:13.114Z,98538.59
2022-11-17T09:28:14.789Z,98528.59
2022-11-17T09:31:19.019Z,98536.91
2022-11-17T09:34:20.614Z,98537.97
2022-11-17T09:37:22.538Z,98528.16
2022-11-17T09:40:24.011Z,98526.50
2022-11-17T09:43:35.036Z,98529.19
2022-11-17T09:46:44.805Z,98523.97
2022-11-17T09:49:58.968Z,98522.13
2022-11-17T09:53:10.239Z,98516.91
2022-11-17T09:56:13.926Z,98522.31
2022-11-17T09:59:20.274Z,98519.78
2022-11-17T10:02:21.915Z,98515.41
2022-11-17T10:05:30.202Z,98522.50
2022-11-17T10:08:37.619Z,98513.75
2022-11-17T10:11:42.269Z,98514.59
2022-11-17T10:14:44.520Z,98513.75
2022-11-17T10:17:46.087Z,98515.63
2022-11-17T10:20:47.567Z,98517.31
2022-11-17T10:23:59.664Z,98511.06
2022-11-17T10:27:21.165Z,98511.06
2022-11-17T10:30:24.122Z,98510.41
2022-11-17T10:33:50.711Z,98500.41
2022-11-17T10:36:52.227Z,98498.13
2022-11-17T10:40:12.514Z,98492.47
2022-11-17T10:43:14.068Z,98493.94
2022-11-17T10:46:16.971Z,98496.44
2022-11-17T10:49:27.316Z,98505.41
2022-11-17T10:52:28.794Z,98502.06
2022-11-17T10:55:33.948Z,98493.94
2022-11-17T10:59:03.519Z,98491.41
2022-11-17T11:02:40.595Z,98491.41
2022-11-17T11:06:03.774Z,98485.19
2022-11-17T11:09:13.219Z,98480.81
2022-11-17T11:12:20.921Z,98476.41
2022-11-17T11:15:25.006Z,98466.63
2022-11-17T11:18:30.130Z,98471.00
2022-11-17T11:21:52.502Z,98471.81
2022-11-17T11:25:03.107Z,98473.06
2022-11-17T11:28:46.349Z,98484.75
2022-11-17T11:32:02.871Z,98471.41
2022-11-17T11:35:23.114Z,98481.19
2022-11-17T11:38:36.681Z,98478.69
2022-11-17T11:41:50.363Z,98475.34
2022-11-17T11:45:18.052Z,98478.88
2022-11-17T11:48:33.756Z,98485.34
2022-11-17T11:51:37.840Z,98485.53
2022-11-17T11:54:50.592Z,98487.41
2022-11-17T11:58:04.288Z,98486.59
2022-11-17T12:01:08.187Z,98484.91
2022-11-17T12:04:30.999Z,98485.75
2022-11-17T12:07:44.312Z,98484.91
2022-11-17T12:11:25.292Z,98484.06
2022-11-17T12:14:32.375Z,98486.78
2022-11-17T12:17:34.109Z,98492.41
2022-11-17T12:20:38.328Z,98482.41
2022-11-17T12:23:54.422Z,98489.47
2022-11-17T12:27:31.216Z,98485.13
2022-11-17T12:30:32.667Z,98489.88
2022-11-17T12:33:52.465Z,98490.53
2022-11-17T12:37:12.988Z,98502.19
2022-11-17T12:40:39.393Z,98504.06
2022-11-17T12:43:40.843Z,98508.84
2022-11-17T12:46:47.880Z,98502.38
2022-11-17T12:49:49.282Z,98506.97
2022-11-17T12:53:09.091Z,98506.78
2022-11-17T12:56:34.962Z,98509.66
2022-11-17T13:00:02.739Z,98515.91
2022-11-17T13:03:15.262Z,98512.38
2022-11-17T13:09:38.342Z,98509.03
2022-11-17T13:12:39.820Z,98518.00
2022-11-17T13:15:43.188Z,98507.19
2022-11-17T13:18:45.504Z,98506.53
2022-11-17T13:21:47.008Z,98519.03
2022-11-17T13:24:50.619Z,98511.72
2022-11-17T13:27:56.225Z,98512.78
2022-11-17T13:31:01.925Z,98513.63
2022-11-17T13:34:12.806Z,98521.94
2022-11-17T13:37:17.634Z,98516.31
2022-11-17T13:40:19.818Z,98511.31
2022-11-17T13:43:24.349Z,98510.25
2022-11-17T13:46:26.040Z,98511.50
2022-11-17T13:49:37.911Z,98514.84
2022-11-17T13:52:46.549Z,98506.94
2022-11-17T13:55:48.698Z,98499.00
2022-11-17T13:58:51.648Z,98503.38
2022-11-17T14:02:14.734Z,98505.91
2022-11-17T14:05:23.167Z,98500.66
2022-11-17T14:08:28.610Z,98504.44
2022-11-17T14:11:30.383Z,98510.03
2022-11-17T14:14:41.927Z,98516.09
2022-11-17T14:17:49.605Z,98525.25
2022-11-17T14:21:14.655Z,98520.66
2022-11-17T14:24:16.592Z,98521.06
2022-11-17T14:27:27.348Z,98522.72
2022-11-17T14:30:28.816Z,98526.66
2022-11-17T14:33:30.535Z,98523.13
2022-11-17T14:36:33.306Z,98525.84
2022-11-17T14:39:34.772Z,98524.16
2022-11-17T14:42:36.579Z,98528.72
2022-11-17T14:45:38.164Z,98525.16
2022-11-17T14:48:39.617Z,98526.03
2022-11-17T14:51:41.205Z,98530.56
2022-11-17T14:54:43.005Z,98537.03
2022-11-17T14:57:44.944Z,98539.75
2022-11-17T15:00:46.396Z,98539.09
2022-11-17T15:03:48.027Z,98549.72
2022-11-17T15:06:49.577Z,98550.75
2022-11-17T15:09:51.102Z,98551.81
2022-11-17T15:12:52.644Z,98548.22
2022-11-17T15:16:04.905Z,98553.47
2022-11-17T15:19:06.743Z,98566.34
2022-11-17T15:22:08.343Z,98570.09
2022-11-17T15:25:09.883Z,98574.47
2022-11-17T15:28:15.075Z,98585.50
2022-11-17T15:31:20.091Z,98593.41
2022-11-17T15:34:21.616Z,98591.75
2022-11-17T15:37:23.149Z,98591.75
2022-11-17T15:40:24.683Z,98582.81
2022-11-17T15:43:30.435Z,98583.63
2022-11-17T15:46:31.909Z,98577.38
2022-11-17T15:49:33.464Z,98578.88
2022-11-17T15:53:02.297Z,98585.75
2022-11-17T15:56:02.177Z,98577.09
2022-11-17T15:59:06.877Z,98579.38
2022-11-17T16:02:09.744Z,98584.59
2022-11-17T16:05:11.268Z,98580.66
2022-11-17T16:08:13.863Z,98581.09
2022-11-17T16:11:15.338Z,98582.56
2022-11-17T16:14:16.894Z,98580.31
2022-11-17T16:17:18.399Z,98586.34
2022-11-17T16:20:19.951Z,98591.38
2022-11-17T16:23:21.570Z,98589.94
2022-11-17T16:26:26.442Z,98590.38
2022-11-17T16:29:27.886Z,98595.59
2022-11-17T16:32:31.524Z,98593.31
2022-11-17T16:35:33.012Z,98588.94
2022-11-17T16:38:34.494Z,98590.63
2022-11-17T16:41:38.779Z,98596.84
2022-11-17T16:44:40.265Z,98591.44
2022-11-17T16:47:41.825Z,98587.06
2022-11-17T16:50:43.325Z,98595.19
2022-11-17T16:53:45.985Z,98590.63
2022-11-17T16:56:47.911Z,98594.16
2022-11-17T16:59:49.441Z,98606.34
2022-11-17T17:02:51.008Z,98611.72
2022-11-17T17:05:52.570Z,98615.41
2022-11-17T17:08:55.886Z,98614.16
2022-11-17T17:11:57.505Z,98600.28
2022-11-17T17:14:59.140Z,98606.94
2022-11-17T17:18:00.670Z,98608.91
2022-11-17T17:21:02.888Z,98606.63
2022-11-17T17:24:05.082Z,98611.47
2022-11-17T17:27:07.154Z,98619.19
2022-11-17T17:30:09.064Z,98615.06
2022-11-17T17:33:10.554Z,98627.38
2022-11-17T17:36:14.875Z,98630.31
2022-11-17T17:39:16.787Z,98631.16
2022-11-17T17:42:18.518Z,98635.34
2022-11-17T17:45:20.056Z,98639.34
2022-11-17T17:48:21.536Z,98635.59
2022-11-17T17:51:25.003Z,98635.81
2022-11-17T17:54:26.546Z,98637.47
2022-11-17T17:57:32.713Z,98635.22
2022-11-17T18:00:35.507Z,98641.91
2022-11-17T18:03:37.911Z,98639.84
2022-11-17T18:06:41.537Z,98634.03
2022-11-17T18:09:42.994Z,98636.34
2022-11-17T18:12:44.449Z,98635.94
2022-11-17T18:15:45.925Z,98651.16
2022-11-17T18:18:48.215Z,98643.84
2022-11-17T18:21:49.825Z,98643.84
2022-11-17T18:24:52.999Z,98643.66
2022-11-17T18:27:57.458Z,98641.78
2022-11-17T18:31:02.130Z,98641.59
2022-11-17T18:34:13.055Z,98642.44
2022-11-17T18:37:14.520Z,98643.25
2022-11-17T18:40:16.146Z,98652.88
2022-11-17T18:43:17.652Z,98655.38
2022-11-17T18:46:23.620Z,98655.81
2022-11-17T18:49:25.091Z,98652.91
2022-11-17T18:52:31.245Z,98655.22
2022-11-17T18:55:32.974Z,98657.53
2022-11-17T18:58:34.983Z,98665.66
2022-11-17T19:01:38.092Z,98662.94
2022-11-17T19:04:39.587Z,98669.19
2022-11-17T19:07:41.157Z,98673.59
2022-11-17T19:11:05.847Z,98671.53
2022-11-17T19:14:07.691Z,98675.25
2022-11-17T19:17:09.285Z,98672.34
2022-11-17T19:20:11.309Z,98669.44
2022-11-17T19:23:12.865Z,98669.06
2022-11-17T19:26:20.729Z,98682.84
2022-11-17T19:29:22.649Z,98684.50
2022-11-17T19:32:24.758Z,98675.31
2022-11-17T19:35:26.297Z,98675.13
2022-11-17T19:38:27.752Z,98661.56
2022-11-17T19:41:31.942Z,98669.28
2022-11-17T19:44:33.410Z,98667.16
2022-11-17T19:47:35.863Z,98667.59
2022-11-17T19:50:37.317Z,98669.84
2022-11-17T19:53:39.360Z,98674.44
2022-11-17T19:56:41.019Z,98675.66
2022-11-17T19:59:42.511Z,98677.53
2022-11-17T20:02:44.009Z,98681.28
2022-11-17T20:05:45.505Z,98678.78
2022-11-17T20:08:47.520Z,98687.56
2022-11-17T20:11:49.012Z,98687.75
2022-11-17T20:14:50.504Z,98684.19
2022-11-17T20:17:51.946Z,98685.22
2022-11-17T20:20:54.428Z,98685.22
2022-11-17T20:23:57.272Z,98691.69
2022-11-17T20:26:58.864Z,98695.22
2022-11-17T20:30:00.350Z,98696.28
2022-11-17T20:33:01.856Z,98695.44
2022-11-17T20:36:04.003Z,98705.22
2022-11-17T20:39:07.196Z,98708.59
2022-11-17T20:42:09.160Z,98716.06
2022-11-17T20:45:10.855Z,98716.06
2022-11-17T20:48:12.323Z,98725.88
2022-11-17T20:51:16.765Z,98728.56
2022-11-17T20:54:18.224Z,98728.56
2022-11-17T20:57:19.714Z,98737.75
2022-11-17T21:00:21.636Z,98735.03
2022-11-17T21:03:24.218Z,98745.03
2022-11-17T21:06:26.114Z,98747.75
2022-11-17T21:09:27.657Z,98738.78
2022-11-17T21:12:29.168Z,98748.59
2022-11-17T21:15:30.704Z,98753.19
2022-11-17T21:18:32.612Z,98750.47
2022-11-17T21:21:34.400Z,98761.09
2022-11-17T21:24:35.882Z,98758.38
2022-11-17T21:27:37.381Z,98755.66
2022-11-17T21:30:38.825Z,98768.19
2022-11-17T21:33:40.736Z,98767.38
2022-11-17T21:36:42.721Z,98771.75
2022-11-17T21:39:44.230Z,98771.94
2022-11-17T21:42:45.957Z,98774.47
2022-11-17T21:45:47.464Z,98771.94
2022-11-17T21:48:50.411Z,98777.34
2022-11-17T21:51:51.866Z,98776.53
2022-11-17T21:54:53.366Z,98781.09
2022-11-17T21:57:54.901Z,98784.88
2022-11-17T22:00:57.169Z,98782.16
2022-11-17T22:03:58.951Z,98790.28
2022-11-17T22:07:00.456Z,98787.75
2022-11-17T22:10:02.050Z,98790.66
2022-11-17T22:13:04.745Z,98796.06
2022-11-17T22:16:10.777Z,98800.88
2022-11-17T22:19:14.151Z,98800.22
2022-11-17T22:22:15.839Z,98801.25
2022-11-17T22:25:43.478Z,98805.00
2022-11-17T22:28:38.786Z,98808.75
2022-11-17T22:31:40.290Z,98804.34
2022-11-17T22:34:41.775Z,98805.41
2022-11-17T22:37:43.274Z,98813.72
2022-11-17T22:40:44.962Z,98811.00
2022-11-17T22:43:54.152Z,98819.97
2022-11-17T22:46:55.775Z,98820.16
2022-11-17T22:49:57.216Z,98826.59
2022-11-17T22:52:59.088Z,98825.97
2022-11-17T22:56:03.074Z,98832.41
2022-11-17T22:59:04.752Z,98826.16
2022-11-17T23:02:06.278Z,98832.63
2022-11-17T23:05:07.828Z,98832.63
2022-11-17T23:08:10.152Z,98834.47
2022-11-17T23:14:33.686Z,98839.91
2022-11-17T23:17:35.386Z,98845.53
2022-11-17T23:20:36.985Z,98843.81
2022-11-17T23:23:40.263Z,98850.09
2022-11-17T23:26:42.456Z,98849.47
2022-11-17T23:29:43.914Z,98850.47
2022-11-17T23:32:45.363Z,98848.81
2022-11-17T23:35:46.892Z,98852.34
2022-11-17T23:38:50.133Z,98845.28
2022-11-17T23:41:51.603Z,98857.97
2022-11-17T23:44:53.064Z,98854.63
2022-11-17T23:47:54.534Z,98851.91
2022-11-17T23:50:56.018Z,98856.50
2022-11-17T23:53:59.058Z,98853.78
2022-11-17T23:57:01.179Z,98862.94
